Gillette, WY

12:30 AM MDT on August 31, 2014 (GMT -0600)
RAWS ECHETA WY US | Change Station
CLOSE
Current Station
Personal Weather Station
Location: Gillette, WY
Elevation: 4396 ft
Nearby Weather Stations

Elev 4396 ft 44.47 °N, 105.84 °W | Updated 39 minutes ago

Partly Cloudy
Partly Cloudy
56 °F
Feels Like 56 °F
N
1
Wind Variable Wind from NW
Gusts 9.0 mph

Today
High -- | Low -- °F
--% Chance of Precip.
Yesterday
High -- | Low -- °F
Precip. -- in
6:24 AM 7:40 PM
Waxing Crescent, 28% visible
Pressure 29.72 in
Visibility 10.0 miles
Clouds Clear
Dew Point 51 °F
Humidity 84%
Rainfall 0.08 in
Snow Depth Not available.
UV 0 out of 12
Pollen 8.50 out of 12
Air Quality Not available.
Flu Activity Not available.
METAR KGCC 310553Z AUTO 28007KT 10SM CLR 13/12 A2985 RMK AO2 SLP062 60008 T01330117 10228 20133 53004

More Conditions Fewer Conditions

Pressure 29.72 in
Visibility 10.0 miles
Clouds Clear
Dew Point 51 °F
Humidity 84%
Rainfall 0.08 in
Snow Depth Not available.
UV 0 out of 12
Pollen 8.50 out of 12
Air Quality Not available.
Flu Activity Not available.
METAR KGCC 310553Z AUTO 28007KT 10SM CLR 13/12 A2985 RMK AO2 SLP062 60008 T01330117 10228 20133 53004

More Conditions Fewer Conditions

10-Day Weather Forecast

Almanac

Astronomy

Aug. 31, 2014 Rise Set
Actual Time 6:24 AM MDT 7:40 PM MDT
Civil Twilight 5:53 AM MDT 8:10 PM MDT
Nautical Twilight 5:17 AM MDT 8:47 PM MDT
Astronomical Twilight 4:39 AM MDT 9:25 PM MDT
Moon 12:28 PM MDT 10:42 PM MDT
Length of Visible Light 14h 16m
Length of Day
13h 16m
Tomorrow will be 2m 58s shorter.
Waxing Crescent, 28% of the Moon is Illuminated
Today
Waxing Crescent
Sep 2
First Quarter
Sep 8
Full
Sep 15
Last Quarter
Sep 24
New

Today's Extremes

State Highs State Lows

Community

WunderPhotos

Upload Photos

1,748,801 photos uploaded!

Nearby

Snow Depth

Station Depth Elevation
Cole Canyon 0 in 5910 ft
Hansen Sawmill 1 in 8360 ft
Cloud Peak Reservoir 0 in 9860 ft
Big Goose 0 in 7990 ft
Powder River Pass 0 in 9480 ft

Earthquake Activity

City Distance Mag. Time & Date
No recent earthquake activity has been reported nearby.
Minimum magnitude displayed is 2.5.

Coastal Water Temperatures

Place Temperature
No Stations Reporting

Nearby Weather Stations